createdAt,value
2022-12-15T00:01:38.800Z,99207.67
2022-12-15T00:04:43.335Z,99208.55
2022-12-15T00:07:48.268Z,99212.20
2022-12-15T00:10:53.010Z,99209.77
2022-12-15T00:13:57.805Z,99212.06
2022-12-15T00:17:02.628Z,99215.38
2022-12-15T00:20:07.263Z,99213.11
2022-12-15T00:23:12.314Z,99213.63
2022-12-15T00:26:17.671Z,99217.09
2022-12-15T00:29:22.423Z,99220.55
2022-12-15T00:32:27.023Z,99224.56
2022-12-15T00:35:32.236Z,99224.77
2022-12-15T00:38:36.997Z,99232.42
2022-12-15T00:41:23.440Z,99232.94
2022-12-15T00:44:09.686Z,99236.95
2022-12-15T00:46:56.294Z,99236.92
2022-12-15T00:50:01.349Z,99239.02
2022-12-15T00:53:05.876Z,99236.77
2022-12-15T00:56:10.454Z,99241.80
2022-12-15T00:59:15.411Z,99242.30
2022-12-15T01:02:20.969Z,99246.48
2022-12-15T01:05:26.508Z,99251.70
2022-12-15T01:08:31.261Z,99246.84
2022-12-15T01:11:36.136Z,99251.70
2022-12-15T01:14:40.991Z,99251.35
2022-12-15T01:17:45.683Z,99244.23
2022-12-15T01:20:34.645Z,99245.78
2022-12-15T01:23:21.037Z,99247.69
2022-12-15T01:26:08.434Z,99256.20
2022-12-15T01:28:55.039Z,99258.63
2022-12-15T01:31:41.949Z,99267.33
2022-12-15T01:34:28.199Z,99273.44
2022-12-15T01:37:14.578Z,99273.46
2022-12-15T01:40:19.431Z,99272.92
2022-12-15T01:43:13.912Z,99283.88
2022-12-15T01:46:10.060Z,99289.08
2022-12-15T01:49:02.780Z,99291.86
2022-12-15T01:51:52.357Z,99293.95
2022-12-15T01:54:42.852Z,99293.61
2022-12-15T01:57:29.719Z,99300.38
2022-12-15T02:00:16.453Z,99296.74
2022-12-15T02:03:03.096Z,99296.21
2022-12-15T02:05:49.694Z,99297.27
2022-12-15T02:08:36.604Z,99297.44
2022-12-15T02:11:36.557Z,99296.94
2022-12-15T02:14:55.356Z,99309.09
2022-12-15T02:17:58.109Z,99318.46
2022-12-15T02:20:50.484Z,99320.91
2022-12-15T02:23:52.160Z,99322.10
2022-12-15T02:27:16.149Z,99317.75
2022-12-15T02:30:26.353Z,99322.28
2022-12-15T02:33:12.903Z,99326.47
2022-12-15T02:36:25.785Z,99326.81
2022-12-15T02:39:12.438Z,99336.02
2022-12-15T02:41:58.618Z,99340.16
2022-12-15T02:44:53.455Z,99351.11
2022-12-15T02:48:21.247Z,99359.29
2022-12-15T02:51:32.918Z,99363.45
2022-12-15T02:54:43.680Z,99367.27
2022-12-15T02:57:51.610Z,99371.98
2022-12-15T03:00:39.414Z,99371.99
2022-12-15T03:03:26.056Z,99371.13
2022-12-15T03:06:12.677Z,99377.91
2022-12-15T03:08:58.979Z,99380.69
2022-12-15T03:11:45.287Z,99390.41
2022-12-15T03:14:31.412Z,99392.50
2022-12-15T03:17:17.724Z,99396.67
2022-12-15T03:20:05.347Z,99390.77
2022-12-15T03:22:51.774Z,99395.45
2022-12-15T03:25:38.288Z,99401.35
2022-12-15T03:28:24.508Z,99410.92
2022-12-15T03:31:10.934Z,99408.01
2022-12-15T03:33:57.439Z,99408.52
2022-12-15T03:36:43.746Z,99402.45
2022-12-15T03:39:30.600Z,99401.25
2022-12-15T03:42:36.977Z,99401.95
2022-12-15T03:45:25.170Z,99408.72
2022-12-15T03:48:11.695Z,99407.83
2022-12-15T03:50:59.240Z,99414.44
2022-12-15T03:53:47.502Z,99415.30
2022-12-15T03:56:33.884Z,99422.60
2022-12-15T03:59:20.337Z,99422.95
2022-12-15T04:02:07.058Z,99425.39
2022-12-15T04:04:53.408Z,99431.50
2022-12-15T04:07:39.868Z,99434.64
2022-12-15T04:10:33.952Z,99438.83
2022-12-15T04:13:21.331Z,99438.32
2022-12-15T04:16:08.047Z,99439.70
2022-12-15T04:19:14.603Z,99453.10
2022-12-15T04:22:03.611Z,99457.09
2022-12-15T04:25:08.843Z,99459.19
2022-12-15T04:28:13.480Z,99467.36
2022-12-15T04:31:21.788Z,99462.51
2022-12-15T04:34:29.078Z,99470.67
2022-12-15T04:37:33.884Z,99478.48
2022-12-15T04:40:38.711Z,99477.28
2022-12-15T04:43:43.436Z,99478.84
2022-12-15T04:46:47.710Z,99476.06
2022-12-15T04:49:52.344Z,99478.86
2022-12-15T04:52:57.216Z,99480.78
2022-12-15T04:56:02.167Z,99481.31
2022-12-15T04:59:07.248Z,99483.75
2022-12-15T05:02:12.218Z,99489.31
2022-12-15T05:05:16.827Z,99490.89
2022-12-15T05:08:21.692Z,99493.66
2022-12-15T05:11:26.505Z,99507.23
2022-12-15T05:14:31.152Z,99514.90
2022-12-15T05:17:41.467Z,99511.59
2022-12-15T05:20:46.479Z,99513.84
2022-12-15T05:23:55.224Z,99517.50
2022-12-15T05:27:00.118Z,99512.81
2022-12-15T05:30:05.057Z,99515.95
2022-12-15T05:32:51.432Z,99520.66
2022-12-15T05:35:37.981Z,99524.48
2022-12-15T05:38:24.403Z,99535.28
2022-12-15T05:41:10.872Z,99538.59
2022-12-15T05:43:57.223Z,99541.55
2022-12-15T05:46:44.390Z,99549.55
2022-12-15T05:49:30.796Z,99555.65
2022-12-15T05:52:17.459Z,99560.52
2022-12-15T05:55:03.848Z,99561.55
2022-12-15T05:57:52.108Z,99568.34
2022-12-15T06:00:39.198Z,99573.38
2022-12-15T06:03:25.351Z,99574.26
2022-12-15T06:06:11.956Z,99577.05
2022-12-15T06:08:58.554Z,99581.06
2022-12-15T06:11:44.925Z,99581.77
2022-12-15T06:14:31.316Z,99595.02
2022-12-15T06:17:17.470Z,99600.59
2022-12-15T06:20:04.541Z,99607.20
2022-12-15T06:22:51.085Z,99621.47
2022-12-15T06:25:37.758Z,99629.48
2022-12-15T06:28:25.043Z,99636.95
2022-12-15T06:31:11.822Z,99644.26
2022-12-15T06:34:02.043Z,99647.57
2022-12-15T06:36:48.955Z,99649.84
2022-12-15T06:39:35.287Z,99647.77
2022-12-15T06:42:21.856Z,99651.60
2022-12-15T06:45:08.870Z,99658.05
2022-12-15T06:48:01.173Z,99662.94
2022-12-15T06:50:50.142Z,99662.58
2022-12-15T06:53:37.957Z,99673.89
2022-12-15T06:56:32.464Z,99675.46
2022-12-15T06:59:20.408Z,99679.81
2022-12-15T07:02:10.116Z,99682.60
2022-12-15T07:04:56.580Z,99683.64
2022-12-15T07:07:42.869Z,99687.98
2022-12-15T07:10:29.371Z,99687.66
2022-12-15T07:13:15.489Z,99692.87
2022-12-15T07:16:02.731Z,99689.73
2022-12-15T07:18:49.293Z,99690.80
2022-12-15T07:21:35.578Z,99685.91
2022-12-15T07:24:22.417Z,99692.89
2022-12-15T07:27:09.239Z,99700.55
2022-12-15T07:29:55.856Z,99707.70
2022-12-15T07:32:42.438Z,99716.41
2022-12-15T07:35:28.767Z,99716.58
2022-12-15T07:38:15.508Z,99721.29
2022-12-15T07:41:03.179Z,99727.92
2022-12-15T07:43:49.445Z,99726.54
2022-12-15T07:46:35.941Z,99734.91
2022-12-15T07:49:22.284Z,99738.22
2022-12-15T07:52:08.395Z,99740.13
2022-12-15T07:54:54.791Z,99742.21
2022-12-15T07:57:41.091Z,99746.41
2022-12-15T08:00:28.292Z,99748.51
2022-12-15T08:03:14.704Z,99751.11
2022-12-15T08:06:07.954Z,99756.35
2022-12-15T08:08:54.790Z,99761.91
2022-12-15T08:11:41.324Z,99767.48
2022-12-15T08:14:29.306Z,99766.27
2022-12-15T08:17:16.073Z,99773.60
2022-12-15T08:20:09.526Z,99780.41
2022-12-15T08:22:56.122Z,99783.36
2022-12-15T08:25:43.243Z,99784.05
2022-12-15T08:28:29.302Z,99785.97
2022-12-15T08:31:17.468Z,99786.33
2022-12-15T08:34:04.736Z,99789.64
2022-12-15T08:36:51.368Z,99790.35
2022-12-15T08:39:37.803Z,99792.45
2022-12-15T08:42:24.391Z,99794.04
2022-12-15T08:45:12.263Z,99793.71
2022-12-15T08:47:58.646Z,99793.70
2022-12-15T08:50:45.755Z,99802.62
2022-12-15T08:53:32.374Z,99798.05
2022-12-15T08:56:19.630Z,99793.14
2022-12-15T08:59:05.719Z,99790.30
2022-12-15T09:01:52.478Z,99781.54
2022-12-15T09:04:39.105Z,99789.52
2022-12-15T09:07:25.640Z,99792.96
2022-12-15T09:10:11.956Z,99796.06
2022-12-15T09:12:58.415Z,99807.07
2022-12-15T09:16:11.611Z,99819.84
2022-12-15T09:18:54.841Z,99820.21
2022-12-15T09:21:44.993Z,99818.63
2022-12-15T09:24:35.016Z,99818.56
2022-12-15T09:27:21.989Z,99817.55
2022-12-15T09:30:09.468Z,99811.90
2022-12-15T09:32:55.751Z,99814.61
2022-12-15T09:35:41.761Z,99814.84
2022-12-15T09:38:28.068Z,99810.90
2022-12-15T09:41:17.235Z,99810.70
2022-12-15T09:44:14.192Z,99812.52
2022-12-15T09:47:37.349Z,99811.61
2022-12-15T09:50:27.974Z,99811.27
2022-12-15T09:53:45.558Z,99815.48
2022-12-15T09:56:28.956Z,99814.99
2022-12-15T09:59:27.205Z,99810.13
2022-12-15T10:02:29.805Z,99807.64
2022-12-15T10:05:57.531Z,99806.56
2022-12-15T10:09:00.095Z,99806.55
2022-12-15T10:12:00.672Z,99806.86
2022-12-15T10:15:05.006Z,99812.67
2022-12-15T10:18:05.522Z,99812.80
2022-12-15T10:20:54.921Z,99813.08
2022-12-15T10:23:41.468Z,99818.64
2022-12-15T10:26:32.008Z,99820.99
2022-12-15T10:29:36.196Z,99829.36
2022-12-15T10:32:50.984Z,99836.11
2022-12-15T10:35:39.751Z,99837.66
2022-12-15T10:38:33.159Z,99838.89
2022-12-15T10:41:20.805Z,99838.70
2022-12-15T10:44:21.782Z,99843.05
2022-12-15T10:47:11.646Z,99841.94
2022-12-15T10:50:24.105Z,99837.05
2022-12-15T10:53:45.279Z,99832.71
2022-12-15T10:56:50.236Z,99838.03
2022-12-15T10:59:38.366Z,99841.02
2022-12-15T11:02:44.995Z,99845.79
2022-12-15T11:05:33.529Z,99847.23
2022-12-15T11:08:20.258Z,99851.14
2022-12-15T11:18:02.825Z,99863.27
2022-12-15T11:20:56.766Z,99863.98
2022-12-15T11:23:59.061Z,99871.25
2022-12-15T11:27:06.353Z,99872.52
2022-12-15T11:30:15.792Z,99872.91
2022-12-15T11:33:02.035Z,99871.45
2022-12-15T11:36:16.768Z,99875.79
2022-12-15T11:39:08.650Z,99862.42
2022-12-15T11:42:01.119Z,99865.15
2022-12-15T11:45:19.400Z,99862.29
2022-12-15T11:48:12.700Z,99871.09
2022-12-15T11:51:00.369Z,99882.02
2022-12-15T11:54:04.990Z,99886.93
2022-12-15T11:57:04.142Z,99886.66
2022-12-15T12:00:10.593Z,99887.64
2022-12-15T12:03:31.351Z,99885.02
2022-12-15T12:06:26.700Z,99886.30
2022-12-15T12:09:18.323Z,99886.55
2022-12-15T12:12:20.365Z,99887.14
2022-12-15T12:15:40.671Z,99884.38
2022-12-15T12:18:36.157Z,99882.28
2022-12-15T12:21:25.602Z,99877.55
2022-12-15T12:24:18.279Z,99883.58
2022-12-15T12:27:10.416Z,99883.68
2022-12-15T12:30:14.948Z,99882.27
2022-12-15T12:33:11.394Z,99884.05
2022-12-15T12:35:58.927Z,99878.81
2022-12-15T12:38:51.567Z,99867.95
2022-12-15T12:42:14.565Z,99869.01
2022-12-15T12:45:01.861Z,99863.54
2022-12-15T12:47:50.194Z,99863.94
2022-12-15T12:50:36.710Z,99867.68
2022-12-15T12:53:33.513Z,99867.84
2022-12-15T12:56:39.247Z,99872.61
2022-12-15T12:59:31.535Z,99861.03
2022-12-15T13:02:20.681Z,99861.77
2022-12-15T13:05:26.739Z,99859.57
2022-12-15T13:08:13.538Z,99868.67
2022-12-15T13:11:00.083Z,99871.69
2022-12-15T13:13:51.072Z,99868.33
2022-12-15T13:16:40.491Z,99871.86
2022-12-15T13:19:59.229Z,99874.33
2022-12-15T13:22:45.319Z,99873.06
2022-12-15T13:25:40.142Z,99868.83
2022-12-15T13:28:44.504Z,99870.24
2022-12-15T13:31:32.807Z,99873.08
2022-12-15T13:34:23.914Z,99873.61
2022-12-15T13:37:44.301Z,99881.19
2022-12-15T13:40:36.548Z,99879.36
2022-12-15T13:43:32.460Z,99875.95
2022-12-15T13:46:27.192Z,99882.58
2022-12-15T13:49:43.165Z,99895.14
2022-12-15T13:53:08.546Z,99900.17
2022-12-15T13:56:01.189Z,99894.84
2022-12-15T13:58:50.890Z,99901.10
2022-12-15T14:01:37.374Z,99902.20
2022-12-15T14:04:23.911Z,99902.63
2022-12-15T14:07:10.602Z,99902.10
2022-12-15T14:09:57.267Z,99914.34
2022-12-15T14:12:46.030Z,99926.38
2022-12-15T14:15:35.375Z,99927.04
2022-12-15T14:18:27.052Z,99930.55
2022-12-15T14:21:24.090Z,99935.63
2022-12-15T14:24:39.911Z,99944.73
2022-12-15T14:27:28.885Z,99956.57
2022-12-15T14:30:24.853Z,99956.27
2022-12-15T14:33:13.691Z,99964.20
2022-12-15T14:36:00.561Z,99971.55
2022-12-15T14:38:51.459Z,99969.13
2022-12-15T14:41:39.809Z,99970.52
2022-12-15T14:44:32.193Z,99976.10
2022-12-15T14:47:28.474Z,99984.98
2022-12-15T14:50:17.561Z,99983.90
2022-12-15T14:53:15.292Z,99985.63
2022-12-15T14:59:31.233Z,99987.84
2022-12-15T15:02:28.424Z,99986.73
2022-12-15T15:03:04.700Z,99845.17
2022-12-15T15:03:09.370Z,99849.48
2022-12-15T15:03:14.541Z,99981.44
2022-12-15T15:05:25.861Z,99993.49
2022-12-15T15:08:19.743Z,100002.33
2022-12-15T15:11:30.003Z,100008.04
2022-12-15T15:14:48.980Z,100012.70
2022-12-15T15:17:38.915Z,100012.13
2022-12-15T15:20:29.480Z,100016.58
2022-12-15T15:23:17.273Z,100014.10
2022-12-15T15:26:06.648Z,100014.39
2022-12-15T15:28:53.218Z,100008.45
2022-12-15T15:31:42.167Z,100005.95
2022-12-15T15:34:28.797Z,100004.64
2022-12-15T15:37:23.407Z,100001.48
2022-12-15T15:40:11.410Z,100001.23
2022-12-15T15:42:58.220Z,99998.91
2022-12-15T15:45:44.974Z,100003.01
2022-12-15T15:48:36.665Z,100005.25
2022-12-15T15:51:27.433Z,100007.33
2022-12-15T15:54:16.214Z,100006.47
2022-12-15T15:57:02.631Z,100005.27
2022-12-15T15:59:48.918Z,99996.68
2022-12-15T16:02:35.441Z,99993.02
2022-12-15T16:05:22.081Z,99983.80
2022-12-15T16:08:13.833Z,99982.90
2022-12-15T16:11:00.198Z,99981.94
2022-12-15T16:13:46.631Z,99981.48
2022-12-15T16:16:33.536Z,99981.22
2022-12-15T16:19:19.545Z,99983.77
2022-12-15T16:22:05.998Z,99979.48
2022-12-15T16:24:52.304Z,99982.54
2022-12-15T16:27:38.739Z,99975.86
2022-12-15T16:30:26.444Z,99976.30
2022-12-15T16:33:13.414Z,99981.82
2022-12-15T16:35:59.786Z,99993.00
2022-12-15T16:38:46.289Z,100003.42
2022-12-15T16:41:32.652Z,100015.57
2022-12-15T16:44:18.718Z,100020.28
2022-12-15T16:47:05.220Z,100024.05
2022-12-15T16:49:51.588Z,100029.92
2022-12-15T16:52:38.414Z,100038.30
2022-12-15T16:55:27.512Z,100039.02
2022-12-15T16:58:17.869Z,100043.05
2022-12-15T17:01:04.446Z,100046.89
2022-12-15T17:03:50.757Z,100046.09
2022-12-15T17:06:37.180Z,100053.95
2022-12-15T17:09:23.840Z,100051.05
2022-12-15T17:12:13.325Z,100055.48
2022-12-15T17:15:02.373Z,100053.51
2022-12-15T17:17:49.379Z,100050.88
2022-12-15T17:20:36.156Z,100042.86
2022-12-15T17:23:22.300Z,100039.52
2022-12-15T17:26:25.751Z,100042.61
2022-12-15T17:29:16.940Z,100043.98
2022-12-15T17:32:03.698Z,100041.77
2022-12-15T17:34:50.009Z,100044.79
2022-12-15T17:37:36.789Z,100052.90
2022-12-15T17:40:23.627Z,100060.65
2022-12-15T17:43:14.089Z,100063.21
2022-12-15T17:46:00.127Z,100055.39
2022-12-15T17:48:46.764Z,100049.86
2022-12-15T17:51:33.441Z,100049.09
2022-12-15T17:54:19.936Z,100046.86
2022-12-15T17:57:06.417Z,100047.11
2022-12-15T17:59:52.825Z,100044.83
2022-12-15T18:02:39.425Z,100046.42
2022-12-15T18:05:27.447Z,100047.77
2022-12-15T18:08:16.884Z,100045.96
2022-12-15T18:11:03.366Z,100051.80
2022-12-15T18:13:49.991Z,100053.16
2022-12-15T18:16:36.358Z,100053.08
2022-12-15T18:19:23.335Z,100049.13
2022-12-15T18:22:14.369Z,100047.61
2022-12-15T18:25:00.828Z,100053.98
2022-12-15T18:27:47.855Z,100058.30
2022-12-15T18:30:34.551Z,100055.73
2022-12-15T18:33:21.156Z,100045.03
2022-12-15T18:36:08.917Z,100042.77
2022-12-15T18:38:55.257Z,100046.71
2022-12-15T18:41:42.252Z,100045.94
2022-12-15T18:44:30.081Z,100048.29
2022-12-15T18:47:17.717Z,100052.88
2022-12-15T18:50:04.784Z,100051.56
2022-12-15T18:52:57.961Z,100057.52
2022-12-15T18:55:44.078Z,100056.36
2022-12-15T18:58:34.994Z,100060.88
2022-12-15T19:01:21.209Z,100059.40
2022-12-15T19:04:07.498Z,100060.88
2022-12-15T19:06:54.018Z,100059.98
2022-12-15T19:09:40.659Z,100056.56
2022-12-15T19:12:26.912Z,100053.75
2022-12-15T19:15:17.312Z,100056.52
2022-12-15T19:18:22.525Z,100051.56
2022-12-15T19:21:34.206Z,100050.67
2022-12-15T19:24:47.024Z,100051.63
2022-12-15T19:27:33.205Z,100049.10
2022-12-15T19:30:20.009Z,100045.81
2022-12-15T19:33:06.810Z,100044.41
2022-12-15T19:35:55.520Z,100044.55
2022-12-15T19:38:41.802Z,100040.91
2022-12-15T19:41:28.551Z,100041.02
2022-12-15T19:44:14.994Z,100044.80
2022-12-15T19:47:01.354Z,100045.66
2022-12-15T19:49:47.914Z,100047.42
2022-12-15T19:52:34.210Z,100050.23
2022-12-15T19:55:24.039Z,100049.90
2022-12-15T19:58:27.899Z,100041.75
2022-12-15T20:01:15.919Z,100038.98
2022-12-15T20:04:02.282Z,100038.27
2022-12-15T20:06:49.137Z,100042.09
2022-12-15T20:09:35.461Z,100038.46
2022-12-15T20:12:22.694Z,100036.38
2022-12-15T20:15:16.307Z,100035.65
2022-12-15T20:18:02.877Z,100030.63
2022-12-15T20:20:49.666Z,100021.59
2022-12-15T20:23:36.353Z,100014.08
2022-12-15T20:26:22.919Z,100009.73
2022-12-15T20:29:25.476Z,100003.09
2022-12-15T20:32:19.466Z,100001.48
2022-12-15T20:35:06.104Z,99994.95
2022-12-15T20:37:52.699Z,99991.39
2022-12-15T20:40:38.937Z,99991.15
2022-12-15T20:43:26.249Z,100001.34
2022-12-15T20:46:16.184Z,100014.42
2022-12-15T20:49:02.687Z,100013.98
2022-12-15T20:51:49.224Z,100015.77
2022-12-15T20:54:35.992Z,100008.67
2022-12-15T20:57:22.289Z,100014.08
2022-12-15T21:00:09.774Z,100015.28
2022-12-15T21:02:56.702Z,100010.90
2022-12-15T21:05:43.507Z,100009.65
2022-12-15T21:08:31.002Z,100005.77
2022-12-15T21:11:22.551Z,100008.34
2022-12-15T21:14:27.127Z,100004.81
2022-12-15T21:17:21.061Z,100005.61
2022-12-15T21:20:08.031Z,100000.95
2022-12-15T21:22:54.355Z,100006.41
2022-12-15T21:25:41.316Z,100012.77
2022-12-15T21:28:27.842Z,100016.04
2022-12-15T21:31:34.251Z,100019.83
2022-12-15T21:34:20.339Z,100016.20
2022-12-15T21:37:18.009Z,100018.77
2022-12-15T21:40:05.173Z,100024.01
2022-12-15T21:42:51.363Z,100022.65
2022-12-15T21:45:37.989Z,100016.08
2022-12-15T21:48:43.252Z,100013.47
2022-12-15T21:51:34.647Z,100004.08
2022-12-15T21:57:29.384Z,100008.23
2022-12-15T22:00:17.393Z,100005.77
2022-12-15T22:03:03.633Z,100008.73
2022-12-15T22:05:49.697Z,100012.73
2022-12-15T22:08:36.264Z,100001.64
2022-12-15T22:11:26.488Z,99992.27
2022-12-15T22:14:34.182Z,99985.39
2022-12-15T22:17:21.738Z,99982.04
2022-12-15T22:20:19.837Z,99978.88
2022-12-15T22:23:05.925Z,99971.70
2022-12-15T22:25:54.709Z,99970.60
2022-12-15T22:28:40.886Z,99973.85
2022-12-15T22:31:27.724Z,99971.48
2022-12-15T22:34:16.208Z,99973.45
2022-12-15T22:37:02.456Z,99974.70
2022-12-15T22:39:49.636Z,99977.84
2022-12-15T22:42:39.041Z,99969.11
2022-12-15T22:45:25.602Z,99971.98
2022-12-15T22:48:13.878Z,99964.86
2022-12-15T22:51:00.955Z,99964.63
2022-12-15T22:53:47.324Z,99963.86
2022-12-15T22:56:37.195Z,99966.58
2022-12-15T22:59:43.252Z,99970.00
2022-12-15T23:02:32.867Z,99964.59
2022-12-15T23:05:19.462Z,99966.64
2022-12-15T23:08:05.783Z,99964.38
2022-12-15T23:11:10.775Z,99959.33
2022-12-15T23:13:57.135Z,99965.66
2022-12-15T23:16:44.224Z,99961.30
2022-12-15T23:19:30.589Z,99960.41
2022-12-15T23:22:17.291Z,99959.35
2022-12-15T23:25:04.761Z,99956.91
2022-12-15T23:27:51.602Z,99956.49
2022-12-15T23:30:38.678Z,99952.25
2022-12-15T23:33:26.641Z,99953.44
2022-12-15T23:36:12.963Z,99955.96
2022-12-15T23:38:59.159Z,99962.77
2022-12-15T23:41:45.370Z,99968.19
2022-12-15T23:44:31.980Z,99972.71
2022-12-15T23:47:18.029Z,99971.02
2022-12-15T23:50:04.808Z,99971.24
2022-12-15T23:52:51.922Z,99960.98
2022-12-15T23:55:38.332Z,99962.27
2022-12-15T23:58:24.511Z,99962.58
